Latest Weather Observations for Georgetown Airport

IDQ60801

Issued at 9:02 pm EST Saturday 25 April 2015 (issued every 30 minutes, with the page automatically refreshed every 10 minutes)

About weather observations | Map of weather stations | Latest weather observations for QLD | Other Formats
Station Details ID: 030124 Name: GEORGETOWN AIRPORT Lat: -18.30 Lon: 143.53 Height: 301.77 m
Data from the previous 72 hours. | See also: Recent months at Georgetown Airport
Date/Time
EST
Temp
°C
App
Temp
°C
Dew
Point
Rel
Hum
%
Delta-T
°C
Wind Press
QNH
hPa
Press
MSL
hPa
Rain
since 9 am
mm
Dir
 
Spd
km/h
Gust
km/h
Spd
kts
Gust
kts
25/09:00pm 27.0 23.1 1.4 19 12.4 SSW 11 19 6 10 1013.7 - 0.0
25/08:30pm 27.2 22.9 0.8 18 12.7 SSW 13 17 7 9 1013.4 - 0.0
25/08:00pm 27.2 22.9 0.8 18 12.7 SSW 13 19 7 10 1013.0 - 0.0
25/07:30pm 28.4 24.1 1.0 17 13.4 SSW 13 20 7 11 1012.5 - 0.0
25/07:00pm 28.8 23.8 1.3 17 13.5 SW 17 22 9 12 1011.9 - 0.0
25/06:30pm 28.7 25.1 0.4 16 13.7 SW 9 13 5 7 1011.5 - 0.0
25/06:00pm 30.7 26.3 0.2 14 14.9 SW 13 17 7 9 1011.3 1009.4 0.0
25/05:30pm 32.2 27.8 0.3 13 15.8 SW 13 20 7 11 1010.8 - 0.0
25/05:00pm 33.1 29.6 1.0 13 16.1 SSW 9 17 5 9 1010.5 - 0.0
25/04:30pm 32.9 28.2 0.9 13 16.0 SSW 15 24 8 13 1010.1 - 0.0
25/04:00pm 33.4 28.8 1.3 13 16.2 WSW 15 22 8 12 1009.8 - 0.0
25/03:30pm 33.4 29.3 2.3 14 16.0 SSW 13 20 7 11 1009.9 - 0.0
25/03:00pm 33.3 29.8 1.2 13 16.2 S 9 17 5 9 1009.7 1008.0 0.0
25/02:30pm 33.4 30.1 2.3 14 16.0 SW 9 15 5 8 1009.8 - 0.0
25/02:00pm 33.0 28.9 2.0 14 15.8 SW 13 20 7 11 1010.2 - 0.0
25/01:30pm 32.6 29.3 2.6 15 15.4 W 9 20 5 11 1010.6 - 0.0
25/01:00pm 32.1 28.5 3.1 16 15.0 SW 11 17 6 9 1011.2 - 0.0
25/12:30pm 31.9 28.5 3.8 17 14.7 S 11 17 6 9 1011.6 - 0.0
25/12:00pm 31.7 28.8 4.5 18 14.4 E 9 20 5 11 1012.0 1010.3 0.0
25/11:30am 30.7 27.6 3.7 18 14.0 ESE 9 17 5 9 1012.3 - 0.0
25/11:00am 30.8 27.7 3.8 18 14.0 E 9 13 5 7 1012.8 - 0.0
25/10:30am 30.1 27.6 4.0 19 13.5 WSW 6 13 3 7 1013.1 - 0.0
25/10:00am 28.4 25.9 4.0 21 12.5 ENE 6 11 3 6 1013.4 - 0.0
25/09:30am 27.7 25.4 4.7 23 11.9 NNE 6 11 3 6 1013.4 - 0.0
25/09:00am 26.8 24.8 4.6 24 11.4 NNW 4 9 2 5 1013.3 1011.5 0.0
25/08:30am 24.9 22.5 5.2 28 10.1 SSW 7 11 4 6 1013.1 - 0.0
25/08:00am 22.5 20.0 5.0 32 8.8 SSW 7 11 4 6 1012.8 - 0.0
25/07:30am 19.8 16.5 4.7 37 7.4 SSW 11 13 6 7 1012.5 - 0.0
25/07:00am 17.6 14.6 4.2 41 6.4 SSW 9 11 5 6 1012.1 - 0.0
25/06:30am 17.1 13.7 4.1 42 6.2 SSW 11 13 6 7 1011.9 - 0.0
25/06:00am 18.0 14.6 3.9 39 6.7 S 11 13 6 7 1011.5 1009.6 0.0
25/05:30am 16.7 13.8 4.7 45 5.8 S 9 11 5 6 1011.3 - 0.0
25/05:00am 17.1 14.2 4.4 43 6.1 S 9 11 5 6 1011.1 - 0.0
25/04:30am 15.8 12.7 5.4 50 5.0 SSW 11 13 6 7 1011.1 - 0.0
25/04:00am 16.3 14.0 5.9 50 5.1 S 7 9 4 5 1011.2 - 0.0
25/03:30am 16.8 14.1 5.4 47 5.6 SSW 9 11 5 6 1011.1 - 0.0
25/03:00am 16.2 15.5 6.9 54 4.7 CALM 0 0 0 0 1011.0 1009.1 0.0
25/02:30am 16.0 15.4 7.2 56 4.4 CALM 0 0 0 0 1011.0 - 0.0
25/02:00am 16.5 16.2 8.5 59 4.1 CALM 0 0 0 0 1011.0 - 0.0
25/01:30am 17.6 17.0 7.6 52 5.1 CALM 0 0 0 0 1011.2 - 0.0
25/01:00am 17.9 15.7 5.5 44 6.1 SSW 6 7 3 4 1011.3 - 0.0
25/12:30am 18.5 16.5 7.3 48 5.7 S 7 9 4 5 1011.5 - 0.0
25/12:00am 19.1 18.1 8.7 51 5.5 ENE 4 7 2 4 1011.6 1009.8 0.0
 
Date/Time
EST
Temp
°C
App
Temp
°C
Dew
Point
Rel
Hum
%
Delta-T
°C
Wind Press
QNH
hPa
Press
MSL
hPa
Rain
since 9 am
mm
Dir
 
Spd
km/h
Gust
km/h
Spd
kts
Gust
kts
24/11:30pm 20.1 18.9 9.4 50 5.8 ENE 6 9 3 5 1011.7 - 0.0
24/11:00pm 22.6 20.3 5.5 33 8.7 SSW 7 11 4 6 1011.6 - 0.0
24/10:30pm 23.1 20.9 6.4 34 8.7 SSW 7 9 4 5 1011.7 - 0.0
24/10:00pm 23.3 21.4 7.4 36 8.4 SSW 7 11 4 6 1011.8 - 0.0
24/09:30pm 24.4 22.6 8.0 35 8.8 SSW 7 9 4 5 1011.8 - 0.0
24/09:00pm 24.2 22.6 10.1 41 7.9 SW 9 11 5 6 1011.7 1009.9 0.0
24/08:30pm 23.7 22.5 10.4 43 7.4 SW 7 9 4 5 1011.4 - 0.0
24/08:00pm 25.3 24.2 10.7 40 8.3 SSW 7 7 4 4 1010.8 - 0.0
24/07:30pm 25.3 24.1 10.4 39 8.4 SW 7 9 4 5 1010.6 - 0.0
24/07:00pm 26.8 26.5 10.1 35 9.4 WSW 2 6 1 3 1010.0 - 0.0
24/06:30pm 28.3 27.0 10.0 32 10.4 WSW 7 9 4 5 1009.7 - 0.0
24/06:00pm 30.1 28.3 9.6 28 11.7 W 9 13 5 7 1009.4 1007.6 0.0
24/05:30pm 31.7 30.0 9.8 26 12.6 W 9 13 5 7 1009.2 - 0.0
24/05:00pm 32.2 30.4 10.8 27 12.5 WSW 11 17 6 9 1009.2 - 0.0
24/04:30pm 32.4 30.3 9.9 25 13.0 WSW 11 17 6 9 1009.2 - 0.0
24/04:00pm 32.6 30.2 10.0 25 13.1 WSW 13 20 7 11 1009.1 - 0.0
24/03:30pm 32.1 29.7 10.2 26 12.7 SW 13 20 7 11 1009.0 - 0.0
24/03:00pm 32.8 29.8 10.8 26 12.9 W 17 24 9 13 1009.1 1007.3 0.0
24/02:30pm 32.2 29.2 10.8 27 12.5 W 17 24 9 13 1009.3 - 0.0
24/02:00pm 32.2 30.2 11.4 28 12.3 W 13 22 7 12 1009.5 - 0.0
24/01:30pm 31.5 30.9 12.3 31 11.5 W 7 19 4 10 1009.9 - 0.0
24/01:00pm 30.9 29.5 12.3 32 11.1 NW 11 22 6 12 1010.4 - 0.0
24/12:30pm 30.2 29.1 12.1 32 10.7 N 9 17 5 9 1011.1 - 0.0
24/12:00pm 29.9 29.9 15.2 41 9.1 N 9 20 5 11 1011.5 1009.7 0.0
24/11:30am 28.3 27.7 15.6 46 7.9 N 13 20 7 11 1012.1 - 0.0
24/11:00am 28.2 28.1 16.1 47 7.6 NE 11 20 6 11 1012.6 - 0.0
24/10:30am 26.8 27.0 15.8 51 6.8 NE 9 20 5 11 1012.9 - 0.0
24/10:00am 26.4 24.4 15.4 50 6.8 NNE 20 24 11 13 1013.0 - 0.0
24/09:30am 25.7 23.1 13.2 46 7.4 NE 19 24 10 13 1013.0 - 0.0
24/09:00am 25.5 22.7 8.5 34 9.3 ENE 13 20 7 11 1012.9 1011.1 0.0
24/08:30am 24.6 22.1 8.1 35 8.9 ENE 11 17 6 9 1012.7 - 0.0
24/08:00am 22.6 20.2 6.8 36 8.2 NE 9 13 5 7 1012.7 - 0.0
24/07:30am 19.6 16.9 7.4 45 6.3 ESE 11 13 6 7 1012.4 - 0.0
24/07:00am 15.9 14.5 3.7 44 5.7 CALM 0 6 0 3 1012.2 - 0.0
24/06:30am 16.6 14.8 3.6 42 6.1 NE 2 6 1 3 1011.9 - 0.0
24/06:00am 15.8 12.6 5.1 49 5.2 NE 11 17 6 9 1011.3 1009.3 0.0
24/05:30am 15.9 13.4 3.7 44 5.7 ESE 6 7 3 4 1010.7 - 0.0
24/05:00am 15.6 13.1 4.0 46 5.5 ESE 6 7 3 4 1010.4 - 0.0
24/04:30am 16.3 13.5 3.0 41 6.2 SSE 7 9 4 5 1010.3 - 0.0
24/04:00am 15.9 13.5 5.2 49 5.2 S 7 7 4 4 1010.4 - 0.0
24/03:30am 16.7 14.0 3.7 42 6.1 S 7 7 4 4 1010.4 - 0.0
24/03:00am 17.7 14.3 2.1 35 7.2 S 9 11 5 6 1010.2 1008.4 0.0
24/02:30am 15.6 12.9 3.7 45 5.6 S 7 9 4 5 1010.3 - 0.0
24/02:00am 15.8 14.3 2.9 42 5.9 CALM 0 0 0 0 1010.3 - 0.0
24/01:30am 16.8 15.4 3.8 42 6.1 CALM 0 0 0 0 1010.5 - 0.0
24/01:00am 18.1 15.7 2.0 34 7.4 SSE 4 7 2 4 1010.7 - 0.0
24/12:30am 20.2 17.1 1.1 28 8.8 S 7 9 4 5 1011.2 - 0.0
24/12:00am 21.2 18.1 1.5 27 9.2 S 7 9 4 5 1011.1 1009.1 0.0
 
Date/Time
EST
Temp
°C
App
Temp
°C
Dew
Point
Rel
Hum
%
Delta-T
°C
Wind Press
QNH
hPa
Press
MSL
hPa
Rain
since 9 am
mm
Dir
 
Spd
km/h
Gust
km/h
Spd
kts
Gust
kts
23/11:30pm 19.6 16.8 3.3 34 7.8 SSE 7 9 4 5 1011.2 - 0.0
23/11:00pm 22.5 19.3 0.9 24 10.1 S 7 9 4 5 1011.2 - 0.0
23/10:30pm 22.0 18.2 1.6 26 9.6 SSW 11 15 6 8 1011.3 - 0.0
23/10:00pm 22.3 19.0 2.4 27 9.5 SSW 9 13 5 7 1011.5 - 0.0
23/09:30pm 22.7 19.1 2.8 27 9.6 SSW 11 13 6 7 1011.5 - 0.0
23/09:00pm 23.5 20.3 2.9 26 10.1 SSW 9 9 5 5 1011.4 1009.6 0.0
23/08:30pm 23.3 19.9 3.8 28 9.7 SSW 11 13 6 7 1011.3 - 0.0
23/08:00pm 23.3 20.7 4.3 29 9.5 SSW 7 9 4 5 1011.1 - 0.0
23/07:30pm 25.5 23.0 4.6 26 10.7 SSW 7 9 4 5 1010.6 - 0.0
23/07:00pm 25.3 22.7 4.4 26 10.6 WSW 7 13 4 7 1010.2 - 0.0
23/06:30pm 27.7 25.1 4.1 22 12.1 W 7 7 4 4 1009.8 - 0.0
23/06:00pm 30.0 27.1 4.6 20 13.3 W 9 13 5 7 1009.6 1007.8 0.0
23/05:30pm 31.3 28.3 4.2 18 14.2 WNW 9 13 5 7 1009.3 - 0.0
23/05:00pm 31.6 27.7 3.6 17 14.6 W 13 20 7 11 1009.0 - 0.0
23/04:30pm 32.0 26.9 3.1 16 14.9 SW 19 24 10 13 1009.0 - 0.0
23/04:00pm 31.8 27.6 3.8 17 14.6 W 15 24 8 13 1009.0 - 0.0
23/03:30pm 32.5 29.5 4.3 17 14.9 NW 9 20 5 11 1008.9 - 0.0
23/03:00pm 32.4 29.0 4.2 17 14.9 WNW 11 24 6 13 1009.3 1007.5 0.0
23/02:30pm 31.9 29.0 4.6 18 14.5 ENE 9 13 5 7 1009.6 - 0.0
23/02:00pm 31.6 28.8 5.2 19 14.1 WNW 9 22 5 12 1009.9 - 0.0
23/01:30pm 30.8 27.6 5.3 20 13.6 WNW 11 19 6 10 1010.5 - 0.0
23/01:00pm 30.7 27.5 5.2 20 13.5 NE 11 19 6 10 1011.1 - 0.0
23/12:30pm 31.2 28.1 5.6 20 13.7 NNW 11 20 6 11 1011.4 - 0.0
23/12:00pm 29.0 26.1 4.5 21 12.7 N 9 15 5 8 1012.0 1010.3 0.0
23/11:30am 29.0 26.1 4.5 21 12.7 NE 9 19 5 10 1012.7 - 0.0
23/11:00am 27.6 24.3 4.6 23 11.9 E 11 17 6 9 1013.3 - 0.0
23/10:30am 27.1 23.5 4.8 24 11.5 E 13 22 7 12 1013.5 - 0.0
23/10:00am 26.3 22.6 4.7 25 11.1 ESE 13 19 7 10 1013.7 - 0.0
23/09:30am 25.8 21.8 4.9 26 10.7 ESE 15 22 8 12 1013.8 - 0.0
23/09:00am 24.8 20.7 4.5 27 10.3 ESE 15 20 8 11 1013.8 1012.0 0.0
23/08:30am 23.7 20.0 4.6 29 9.6 ESE 13 20 7 11 1013.9 - 0.0
23/08:00am 22.5 18.8 4.5 31 9.0 E 13 19 7 10 1013.8 - 0.0
23/07:30am 20.1 17.8 5.7 39 7.2 E 7 13 4 7 1013.4 - 0.0
23/07:00am 16.0 13.6 4.1 45 5.6 ENE 6 13 3 7 1013.2 - 0.0
23/06:30am 16.4 15.1 4.1 44 5.8 CALM 0 0 0 0 1013.0 - 0.0
23/06:00am 19.3 16.2 3.5 35 7.6 ESE 9 15 5 8 1012.5 1010.7 0.0
23/05:30am 19.7 16.6 3.4 34 7.8 ESE 9 13 5 7 1012.2 - 0.0
23/05:00am 19.4 16.3 3.6 35 7.6 ESE 9 15 5 8 1012.0 - 0.0
23/04:30am 18.0 14.7 2.7 36 7.1 ESE 9 11 5 6 1012.1 - 0.0
23/04:00am 17.8 14.8 2.2 35 7.2 ESE 7 11 4 6 1012.1 - 0.0
23/03:30am 19.3 16.3 2.2 32 8.0 SE 7 11 4 6 1012.0 - 0.0
23/03:00am 19.5 16.1 1.9 31 8.2 SE 9 11 5 6 1012.0 1010.2 0.0
23/02:30am 19.3 15.9 1.8 31 8.1 SSE 9 13 5 7 1012.2 - 0.0
23/02:00am 18.7 15.5 0.8 30 8.1 S 7 11 4 6 1012.4 - 0.0
23/01:30am 19.3 15.7 0.8 29 8.4 S 9 11 5 6 1012.7 - 0.0
23/01:00am 19.2 15.6 0.8 29 8.3 S 9 11 5 6 1012.8 - 0.0
23/12:30am 20.4 16.8 0.3 26 9.1 S 9 11 5 6 1013.0 - 0.0
23/12:00am 20.3 16.3 0.2 26 9.1 SSW 11 13 6 7 1013.1 1011.3 0.0
 
Date/Time
EST
Temp
°C
App
Temp
°C
Dew
Point
Rel
Hum
%
Delta-T
°C
Wind Press
QNH
hPa
Press
MSL
hPa
Rain
since 9 am
mm
Dir
 
Spd
km/h
Gust
km/h
Spd
kts
Gust
kts
22/11:30pm 20.1 16.8 0.0 26 9.0 SSW 7 9 4 5 1013.0 - 0.0
22/11:00pm 21.6 18.4 -0.4 23 9.9 SW 6 7 3 4 1012.9 - 0.0
22/10:30pm 22.9 19.5 -0.6 21 10.7 SW 7 9 4 5 1012.8 - 0.0
22/10:00pm 24.0 20.6 -0.3 20 11.2 SW 7 9 4 5 1013.0 - 0.0
22/09:30pm 25.0 20.6 0.5 20 11.6 SW 13 19 7 10 1012.8 - 0.0

Other Formats:

Comma delimited format used in spreadsheet applications
http://www.bom.gov.au/fwo/IDQ60801/IDQ60801.94274.axf

JavaScript Object Notation format (JSON) in row-major order
http://www.bom.gov.au/fwo/IDQ60801/IDQ60801.94274.json